sensor_id;sensor_type;location;lat;lon;timestamp;P1;durP1;ratioP1;P2;durP2;ratioP2
3865;SDS011;1948;53.250;10.412;2023-10-09T00:02:09;4.47;;;3.07;;
3865;SDS011;1948;53.250;10.412;2023-10-09T00:04:41;3.50;;;2.53;;
3865;SDS011;1948;53.250;10.412;2023-10-09T00:07:12;7.50;;;3.20;;
3865;SDS011;1948;53.250;10.412;2023-10-09T00:09:43;8.47;;;2.50;;
3865;SDS011;1948;53.250;10.412;2023-10-09T00:12:16;5.50;;;2.40;;
3865;SDS011;1948;53.250;10.412;2023-10-09T00:14:50;3.47;;;2.60;;
3865;SDS011;1948;53.250;10.412;2023-10-09T00:17:22;6.30;;;3.17;;
3865;SDS011;1948;53.250;10.412;2023-10-09T00:19:57;2.90;;;1.83;;
3865;SDS011;1948;53.250;10.412;2023-10-09T00:22:44;4.80;;;2.20;;
3865;SDS011;1948;53.250;10.412;2023-10-09T00:25:13;2.60;;;2.40;;
3865;SDS011;1948;53.250;10.412;2023-10-09T00:27:50;3.13;;;2.37;;
3865;SDS011;1948;53.250;10.412;2023-10-09T00:32:46;4.60;;;2.50;;
3865;SDS011;1948;53.250;10.412;2023-10-09T00:35:37;4.30;;;2.80;;
3865;SDS011;1948;53.250;10.412;2023-10-09T00:38:10;3.13;;;2.60;;
3865;SDS011;1948;53.250;10.412;2023-10-09T00:40:41;6.60;;;2.57;;
3865;SDS011;1948;53.250;10.412;2023-10-09T00:43:24;6.17;;;3.50;;
3865;SDS011;1948;53.250;10.412;2023-10-09T00:45:56;3.63;;;2.60;;
3865;SDS011;1948;53.250;10.412;2023-10-09T00:48:57;6.53;;;2.73;;
3865;SDS011;1948;53.250;10.412;2023-10-09T00:51:29;6.93;;;2.43;;
3865;SDS011;1948;53.250;10.412;2023-10-09T00:54:03;4.17;;;2.23;;
3865;SDS011;1948;53.250;10.412;2023-10-09T00:56:41;4.63;;;3.03;;
3865;SDS011;1948;53.250;10.412;2023-10-09T00:59:23;9.77;;;2.57;;
3865;SDS011;1948;53.250;10.412;2023-10-09T01:01:53;5.20;;;3.10;;
3865;SDS011;1948;53.250;10.412;2023-10-09T01:04:24;7.90;;;2.80;;
3865;SDS011;1948;53.250;10.412;2023-10-09T01:06:56;8.43;;;2.90;;
3865;SDS011;1948;53.250;10.412;2023-10-09T01:09:39;9.40;;;3.60;;
3865;SDS011;1948;53.250;10.412;2023-10-09T01:12:11;6.77;;;3.00;;
3865;SDS011;1948;53.250;10.412;2023-10-09T01:14:43;20.53;;;3.00;;
3865;SDS011;1948;53.250;10.412;2023-10-09T01:17:11;3.13;;;2.83;;
3865;SDS011;1948;53.250;10.412;2023-10-09T01:20:02;3.23;;;2.80;;
3865;SDS011;1948;53.250;10.412;2023-10-09T01:22:31;5.57;;;2.60;;
3865;SDS011;1948;53.250;10.412;2023-10-09T01:25:01;6.70;;;2.60;;
3865;SDS011;1948;53.250;10.412;2023-10-09T01:27:35;9.57;;;3.10;;
3865;SDS011;1948;53.250;10.412;2023-10-09T01:30:07;4.00;;;2.83;;
3865;SDS011;1948;53.250;10.412;2023-10-09T01:32:40;12.90;;;2.70;;
3865;SDS011;1948;53.250;10.412;2023-10-09T01:35:12;6.93;;;2.30;;
3865;SDS011;1948;53.250;10.412;2023-10-09T01:37:47;3.87;;;3.00;;
3865;SDS011;1948;53.250;10.412;2023-10-09T01:40:17;7.80;;;3.07;;
3865;SDS011;1948;53.250;10.412;2023-10-09T01:43:02;7.40;;;2.90;;
3865;SDS011;1948;53.250;10.412;2023-10-09T01:45:36;6.17;;;3.30;;
3865;SDS011;1948;53.250;10.412;2023-10-09T01:48:15;2.83;;;2.67;;
3865;SDS011;1948;53.250;10.412;2023-10-09T01:50:53;10.30;;;3.00;;
3865;SDS011;1948;53.250;10.412;2023-10-09T01:53:20;4.73;;;2.40;;
3865;SDS011;1948;53.250;10.412;2023-10-09T01:55:51;5.23;;;3.13;;
3865;SDS011;1948;53.250;10.412;2023-10-09T01:58:25;11.10;;;2.83;;
3865;SDS011;1948;53.250;10.412;2023-10-09T02:00:56;4.70;;;2.80;;
3865;SDS011;1948;53.250;10.412;2023-10-09T02:03:28;3.63;;;2.70;;
3865;SDS011;1948;53.250;10.412;2023-10-09T02:05:57;10.40;;;3.23;;
3865;SDS011;1948;53.250;10.412;2023-10-09T02:08:44;5.13;;;3.00;;
3865;SDS011;1948;53.250;10.412;2023-10-09T02:11:18;4.00;;;2.53;;
3865;SDS011;1948;53.250;10.412;2023-10-09T02:13:51;3.60;;;3.00;;
3865;SDS011;1948;53.250;10.412;2023-10-09T02:16:32;5.80;;;2.30;;
3865;SDS011;1948;53.250;10.412;2023-10-09T02:19:08;6.83;;;2.47;;
3865;SDS011;1948;53.250;10.412;2023-10-09T02:21:55;5.97;;;2.87;;
3865;SDS011;1948;53.250;10.412;2023-10-09T02:24:25;3.23;;;2.70;;
3865;SDS011;1948;53.250;10.412;2023-10-09T02:27:15;12.30;;;2.03;;
3865;SDS011;1948;53.250;10.412;2023-10-09T02:29:53;5.33;;;2.73;;
3865;SDS011;1948;53.250;10.412;2023-10-09T02:32:22;7.70;;;2.40;;
3865;SDS011;1948;53.250;10.412;2023-10-09T02:34:54;5.83;;;2.63;;
3865;SDS011;1948;53.250;10.412;2023-10-09T02:37:22;2.30;;;2.20;;
3865;SDS011;1948;53.250;10.412;2023-10-09T02:39:53;2.03;;;1.93;;
3865;SDS011;1948;53.250;10.412;2023-10-09T02:42:21;2.70;;;2.50;;
3865;SDS011;1948;53.250;10.412;2023-10-09T02:44:54;4.27;;;2.20;;
3865;SDS011;1948;53.250;10.412;2023-10-09T02:47:25;3.83;;;2.50;;
3865;SDS011;1948;53.250;10.412;2023-10-09T02:50:04;2.50;;;2.40;;
3865;SDS011;1948;53.250;10.412;2023-10-09T02:52:35;6.23;;;2.70;;
3865;SDS011;1948;53.250;10.412;2023-10-09T02:55:07;2.90;;;2.20;;
3865;SDS011;1948;53.250;10.412;2023-10-09T02:57:41;5.23;;;2.67;;
3865;SDS011;1948;53.250;10.412;2023-10-09T03:00:11;3.07;;;2.60;;
3865;SDS011;1948;53.250;10.412;2023-10-09T03:02:48;9.50;;;2.47;;
3865;SDS011;1948;53.250;10.412;2023-10-09T03:05:17;5.77;;;2.90;;
3865;SDS011;1948;53.250;10.412;2023-10-09T03:07:45;4.57;;;2.40;;
3865;SDS011;1948;53.250;10.412;2023-10-09T03:10:12;5.50;;;2.30;;
3865;SDS011;1948;53.250;10.412;2023-10-09T03:12:41;3.77;;;2.80;;
3865;SDS011;1948;53.250;10.412;2023-10-09T03:15:09;12.10;;;2.73;;
3865;SDS011;1948;53.250;10.412;2023-10-09T03:17:39;2.53;;;2.33;;
3865;SDS011;1948;53.250;10.412;2023-10-09T03:20:09;4.10;;;2.83;;
3865;SDS011;1948;53.250;10.412;2023-10-09T03:22:40;5.30;;;3.10;;
3865;SDS011;1948;53.250;10.412;2023-10-09T03:25:15;2.40;;;2.20;;
3865;SDS011;1948;53.250;10.412;2023-10-09T03:27:46;5.53;;;2.77;;
3865;SDS011;1948;53.250;10.412;2023-10-09T03:30:15;7.10;;;2.73;;
3865;SDS011;1948;53.250;10.412;2023-10-09T03:32:54;3.40;;;2.33;;
3865;SDS011;1948;53.250;10.412;2023-10-09T03:35:24;2.80;;;2.60;;
3865;SDS011;1948;53.250;10.412;2023-10-09T03:37:55;3.33;;;2.60;;
3865;SDS011;1948;53.250;10.412;2023-10-09T03:40:44;3.77;;;2.23;;
3865;SDS011;1948;53.250;10.412;2023-10-09T03:43:14;3.33;;;2.90;;
3865;SDS011;1948;53.250;10.412;2023-10-09T03:45:42;16.53;;;3.20;;
3865;SDS011;1948;53.250;10.412;2023-10-09T03:48:19;4.73;;;3.03;;
3865;SDS011;1948;53.250;10.412;2023-10-09T03:50:49;2.67;;;2.53;;
3865;SDS011;1948;53.250;10.412;2023-10-09T03:53:18;2.77;;;2.53;;
3865;SDS011;1948;53.250;10.412;2023-10-09T03:55:45;4.10;;;3.10;;
3865;SDS011;1948;53.250;10.412;2023-10-09T03:58:12;5.20;;;2.93;;
3865;SDS011;1948;53.250;10.412;2023-10-09T04:00:45;2.80;;;2.70;;
3865;SDS011;1948;53.250;10.412;2023-10-09T04:03:13;3.90;;;2.87;;
3865;SDS011;1948;53.250;10.412;2023-10-09T04:05:44;2.53;;;2.37;;
3865;SDS011;1948;53.250;10.412;2023-10-09T04:08:11;2.97;;;2.77;;
3865;SDS011;1948;53.250;10.412;2023-10-09T04:10:58;5.40;;;2.70;;
3865;SDS011;1948;53.250;10.412;2023-10-09T04:13:31;7.80;;;3.57;;
3865;SDS011;1948;53.250;10.412;2023-10-09T04:16:02;4.70;;;2.47;;
3865;SDS011;1948;53.250;10.412;2023-10-09T04:18:37;6.30;;;2.60;;
3865;SDS011;1948;53.250;10.412;2023-10-09T04:21:06;2.67;;;2.53;;
3865;SDS011;1948;53.250;10.412;2023-10-09T04:23:46;3.43;;;2.60;;
3865;SDS011;1948;53.250;10.412;2023-10-09T04:26:36;2.80;;;2.60;;
3865;SDS011;1948;53.250;10.412;2023-10-09T04:29:11;3.40;;;3.10;;
3865;SDS011;1948;53.250;10.412;2023-10-09T04:31:53;5.33;;;2.77;;
3865;SDS011;1948;53.250;10.412;2023-10-09T04:34:27;5.73;;;3.00;;
3865;SDS011;1948;53.250;10.412;2023-10-09T04:37:00;4.80;;;2.73;;
3865;SDS011;1948;53.250;10.412;2023-10-09T04:39:43;7.90;;;2.73;;
3865;SDS011;1948;53.250;10.412;2023-10-09T04:42:15;11.47;;;3.00;;
3865;SDS011;1948;53.250;10.412;2023-10-09T04:44:52;5.90;;;2.70;;
3865;SDS011;1948;53.250;10.412;2023-10-09T04:47:29;5.70;;;2.97;;
3865;SDS011;1948;53.250;10.412;2023-10-09T04:50:08;8.30;;;3.20;;
3865;SDS011;1948;53.250;10.412;2023-10-09T04:52:38;9.10;;;3.07;;
3865;SDS011;1948;53.250;10.412;2023-10-09T04:55:05;5.17;;;3.00;;
3865;SDS011;1948;53.250;10.412;2023-10-09T05:00:13;2.80;;;2.40;;
3865;SDS011;1948;53.250;10.412;2023-10-09T05:02:53;7.13;;;2.70;;
3865;SDS011;1948;53.250;10.412;2023-10-09T05:10:48;2.90;;;2.43;;
3865;SDS011;1948;53.250;10.412;2023-10-09T05:13:44;7.70;;;2.90;;
3865;SDS011;1948;53.250;10.412;2023-10-09T05:16:16;2.37;;;2.27;;
3865;SDS011;1948;53.250;10.412;2023-10-09T05:18:46;2.87;;;2.20;;
3865;SDS011;1948;53.250;10.412;2023-10-09T05:21:24;2.63;;;2.53;;
3865;SDS011;1948;53.250;10.412;2023-10-09T05:23:58;2.47;;;2.27;;
3865;SDS011;1948;53.250;10.412;2023-10-09T05:26:44;3.67;;;2.50;;
3865;SDS011;1948;53.250;10.412;2023-10-09T05:29:14;2.30;;;2.20;;
3865;SDS011;1948;53.250;10.412;2023-10-09T05:32:14;6.43;;;2.13;;
3865;SDS011;1948;53.250;10.412;2023-10-09T05:34:42;5.27;;;2.60;;
3865;SDS011;1948;53.250;10.412;2023-10-09T05:37:28;12.60;;;2.50;;
3865;SDS011;1948;53.250;10.412;2023-10-09T05:40:02;6.13;;;2.60;;
3865;SDS011;1948;53.250;10.412;2023-10-09T05:42:42;14.83;;;3.57;;
3865;SDS011;1948;53.250;10.412;2023-10-09T05:45:12;3.20;;;2.70;;
3865;SDS011;1948;53.250;10.412;2023-10-09T05:50:20;8.73;;;2.87;;
3865;SDS011;1948;53.250;10.412;2023-10-09T05:52:52;5.03;;;2.40;;
3865;SDS011;1948;53.250;10.412;2023-10-09T05:55:21;2.50;;;2.23;;
3865;SDS011;1948;53.250;10.412;2023-10-09T05:58:04;5.60;;;3.20;;
3865;SDS011;1948;53.250;10.412;2023-10-09T06:00:50;2.93;;;2.57;;
3865;SDS011;1948;53.250;10.412;2023-10-09T06:03:36;6.10;;;2.33;;
3865;SDS011;1948;53.250;10.412;2023-10-09T06:06:18;3.67;;;2.87;;
3865;SDS011;1948;53.250;10.412;2023-10-09T06:11:55;8.07;;;2.63;;
3865;SDS011;1948;53.250;10.412;2023-10-09T06:14:42;9.83;;;2.60;;
3865;SDS011;1948;53.250;10.412;2023-10-09T06:17:09;10.17;;;2.57;;
3865;SDS011;1948;53.250;10.412;2023-10-09T06:19:54;2.70;;;2.50;;
3865;SDS011;1948;53.250;10.412;2023-10-09T06:22:49;2.80;;;2.57;;
3865;SDS011;1948;53.250;10.412;2023-10-09T06:25:44;5.13;;;2.80;;
3865;SDS011;1948;53.250;10.412;2023-10-09T06:28:29;5.07;;;2.50;;
3865;SDS011;1948;53.250;10.412;2023-10-09T06:31:02;3.70;;;3.20;;
3865;SDS011;1948;53.250;10.412;2023-10-09T06:33:49;3.47;;;3.10;;
3865;SDS011;1948;53.250;10.412;2023-10-09T06:36:42;2.87;;;2.67;;
3865;SDS011;1948;53.250;10.412;2023-10-09T06:39:19;3.73;;;2.87;;
3865;SDS011;1948;53.250;10.412;2023-10-09T06:42:05;3.40;;;3.10;;
3865;SDS011;1948;53.250;10.412;2023-10-09T06:44:36;3.33;;;2.90;;
3865;SDS011;1948;53.250;10.412;2023-10-09T06:47:18;3.57;;;3.20;;
3865;SDS011;1948;53.250;10.412;2023-10-09T06:49:50;3.20;;;3.00;;
3865;SDS011;1948;53.250;10.412;2023-10-09T06:52:36;13.73;;;4.10;;
3865;SDS011;1948;53.250;10.412;2023-10-09T06:55:24;4.13;;;3.73;;
3865;SDS011;1948;53.250;10.412;2023-10-09T06:58:15;4.73;;;3.40;;
3865;SDS011;1948;53.250;10.412;2023-10-09T07:00:49;3.53;;;2.80;;
3865;SDS011;1948;53.250;10.412;2023-10-09T07:03:26;3.40;;;3.20;;
3865;SDS011;1948;53.250;10.412;2023-10-09T07:06:10;4.27;;;3.97;;
3865;SDS011;1948;53.250;10.412;2023-10-09T07:08:53;4.03;;;3.83;;
3865;SDS011;1948;53.250;10.412;2023-10-09T07:11:42;3.60;;;3.43;;
3865;SDS011;1948;53.250;10.412;2023-10-09T07:14:24;3.80;;;3.60;;
3865;SDS011;1948;53.250;10.412;2023-10-09T07:16:58;3.67;;;3.47;;
3865;SDS011;1948;53.250;10.412;2023-10-09T07:19:44;8.60;;;4.50;;
3865;SDS011;1948;53.250;10.412;2023-10-09T07:22:16;3.77;;;3.57;;
3865;SDS011;1948;53.250;10.412;2023-10-09T07:24:55;3.80;;;3.70;;
3865;SDS011;1948;53.250;10.412;2023-10-09T07:30:12;5.70;;;5.27;;
3865;SDS011;1948;53.250;10.412;2023-10-09T07:33:03;7.83;;;4.70;;
3865;SDS011;1948;53.250;10.412;2023-10-09T07:38:15;4.70;;;4.40;;
3865;SDS011;1948;53.250;10.412;2023-10-09T07:41:02;5.33;;;5.00;;
3865;SDS011;1948;53.250;10.412;2023-10-09T07:43:34;4.77;;;4.50;;
3865;SDS011;1948;53.250;10.412;2023-10-09T07:46:12;4.37;;;4.00;;
3865;SDS011;1948;53.250;10.412;2023-10-09T07:49:21;4.00;;;3.90;;
3865;SDS011;1948;53.250;10.412;2023-10-09T07:51:57;3.60;;;3.50;;
3865;SDS011;1948;53.250;10.412;2023-10-09T07:54:25;5.33;;;4.87;;
3865;SDS011;1948;53.250;10.412;2023-10-09T07:57:12;5.83;;;4.60;;
3865;SDS011;1948;53.250;10.412;2023-10-09T07:59:52;4.10;;;3.90;;
3865;SDS011;1948;53.250;10.412;2023-10-09T08:02:28;4.40;;;4.30;;
3865;SDS011;1948;53.250;10.412;2023-10-09T08:05:01;4.07;;;3.87;;
3865;SDS011;1948;53.250;10.412;2023-10-09T08:07:33;6.33;;;4.50;;
3865;SDS011;1948;53.250;10.412;2023-10-09T08:10:20;4.10;;;4.00;;
3865;SDS011;1948;53.250;10.412;2023-10-09T08:12:48;3.70;;;3.60;;
3865;SDS011;1948;53.250;10.412;2023-10-09T08:15:16;4.20;;;4.03;;
3865;SDS011;1948;53.250;10.412;2023-10-09T08:17:48;4.20;;;4.03;;
3865;SDS011;1948;53.250;10.412;2023-10-09T08:20:33;4.30;;;4.10;;
3865;SDS011;1948;53.250;10.412;2023-10-09T08:23:18;4.37;;;4.17;;
3865;SDS011;1948;53.250;10.412;2023-10-09T08:26:01;4.70;;;4.40;;
3865;SDS011;1948;53.250;10.412;2023-10-09T08:28:39;3.90;;;3.77;;
3865;SDS011;1948;53.250;10.412;2023-10-09T08:31:14;4.63;;;4.27;;
3865;SDS011;1948;53.250;10.412;2023-10-09T08:34:12;4.27;;;3.80;;
3865;SDS011;1948;53.250;10.412;2023-10-09T08:36:55;4.43;;;4.03;;
3865;SDS011;1948;53.250;10.412;2023-10-09T08:39:27;4.30;;;4.20;;
3865;SDS011;1948;53.250;10.412;2023-10-09T08:41:59;4.60;;;4.47;;
3865;SDS011;1948;53.250;10.412;2023-10-09T08:44:31;5.00;;;4.47;;
3865;SDS011;1948;53.250;10.412;2023-10-09T08:47:02;4.40;;;4.00;;
3865;SDS011;1948;53.250;10.412;2023-10-09T08:49:31;4.30;;;4.10;;
3865;SDS011;1948;53.250;10.412;2023-10-09T08:52:02;5.40;;;5.10;;
3865;SDS011;1948;53.250;10.412;2023-10-09T08:54:32;4.90;;;4.70;;
3865;SDS011;1948;53.250;10.412;2023-10-09T08:57:01;5.07;;;4.77;;
3865;SDS011;1948;53.250;10.412;2023-10-09T08:59:40;5.90;;;5.40;;
3865;SDS011;1948;53.250;10.412;2023-10-09T09:02:15;6.47;;;5.90;;
3865;SDS011;1948;53.250;10.412;2023-10-09T09:04:43;5.50;;;5.13;;
3865;SDS011;1948;53.250;10.412;2023-10-09T09:07:27;5.73;;;5.33;;
3865;SDS011;1948;53.250;10.412;2023-10-09T09:10:05;5.13;;;4.93;;
3865;SDS011;1948;53.250;10.412;2023-10-09T09:12:48;7.37;;;6.00;;
3865;SDS011;1948;53.250;10.412;2023-10-09T09:15:27;5.70;;;5.30;;
3865;SDS011;1948;53.250;10.412;2023-10-09T09:18:08;6.43;;;5.83;;
3865;SDS011;1948;53.250;10.412;2023-10-09T09:20:35;6.37;;;5.97;;
3865;SDS011;1948;53.250;10.412;2023-10-09T09:23:09;6.77;;;6.27;;
3865;SDS011;1948;53.250;10.412;2023-10-09T09:25:43;6.77;;;6.20;;
3865;SDS011;1948;53.250;10.412;2023-10-09T09:28:12;9.07;;;6.73;;
3865;SDS011;1948;53.250;10.412;2023-10-09T09:30:48;6.90;;;6.40;;
3865;SDS011;1948;53.250;10.412;2023-10-09T09:33:24;7.00;;;6.30;;
3865;SDS011;1948;53.250;10.412;2023-10-09T09:35:57;5.97;;;5.60;;
3865;SDS011;1948;53.250;10.412;2023-10-09T09:38:30;6.73;;;6.10;;
3865;SDS011;1948;53.250;10.412;2023-10-09T09:41:15;7.13;;;6.27;;
3865;SDS011;1948;53.250;10.412;2023-10-09T09:43:51;7.60;;;7.00;;
3865;SDS011;1948;53.250;10.412;2023-10-09T09:46:35;7.60;;;6.80;;
3865;SDS011;1948;53.250;10.412;2023-10-09T09:49:11;8.17;;;7.47;;
3865;SDS011;1948;53.250;10.412;2023-10-09T09:51:47;6.83;;;6.20;;
3865;SDS011;1948;53.250;10.412;2023-10-09T09:54:17;6.90;;;6.40;;
3865;SDS011;1948;53.250;10.412;2023-10-09T09:56:52;7.47;;;6.73;;
3865;SDS011;1948;53.250;10.412;2023-10-09T09:59:24;7.13;;;5.70;;
3865;SDS011;1948;53.250;10.412;2023-10-09T10:01:56;6.77;;;5.93;;
3865;SDS011;1948;53.250;10.412;2023-10-09T10:04:34;6.67;;;6.10;;
3865;SDS011;1948;53.250;10.412;2023-10-09T10:07:04;7.83;;;6.03;;
3865;SDS011;1948;53.250;10.412;2023-10-09T10:09:42;5.77;;;5.40;;
3865;SDS011;1948;53.250;10.412;2023-10-09T10:12:11;6.17;;;5.67;;
3865;SDS011;1948;53.250;10.412;2023-10-09T10:14:53;5.87;;;5.40;;
3865;SDS011;1948;53.250;10.412;2023-10-09T10:18:06;7.10;;;5.40;;
3865;SDS011;1948;53.250;10.412;2023-10-09T10:20:30;6.40;;;4.33;;
3865;SDS011;1948;53.250;10.412;2023-10-09T10:23:31;4.83;;;4.57;;
3865;SDS011;1948;53.250;10.412;2023-10-09T10:26:20;4.60;;;4.40;;
3865;SDS011;1948;53.250;10.412;2023-10-09T10:37:37;5.07;;;4.77;;
3865;SDS011;1948;53.250;10.412;2023-10-09T10:40:24;3.50;;;3.40;;
3865;SDS011;1948;53.250;10.412;2023-10-09T10:43:06;4.57;;;4.30;;
3865;SDS011;1948;53.250;10.412;2023-10-09T10:46:14;3.70;;;3.50;;
3865;SDS011;1948;53.250;10.412;2023-10-09T10:49:00;19.00;;;3.80;;
3865;SDS011;1948;53.250;10.412;2023-10-09T10:51:48;4.00;;;3.60;;
3865;SDS011;1948;53.250;10.412;2023-10-09T10:54:24;2.70;;;2.60;;
3865;SDS011;1948;53.250;10.412;2023-10-09T10:57:00;2.53;;;2.53;;
3865;SDS011;1948;53.250;10.412;2023-10-09T10:59:30;3.60;;;3.30;;
3865;SDS011;1948;53.250;10.412;2023-10-09T11:02:09;3.13;;;2.90;;
3865;SDS011;1948;53.250;10.412;2023-10-09T11:04:39;2.20;;;2.20;;
3865;SDS011;1948;53.250;10.412;2023-10-09T11:07:10;3.53;;;2.67;;
3865;SDS011;1948;53.250;10.412;2023-10-09T11:09:52;2.53;;;2.53;;
3865;SDS011;1948;53.250;10.412;2023-10-09T11:12:45;2.77;;;2.67;;
3865;SDS011;1948;53.250;10.412;2023-10-09T11:15:29;1.80;;;1.80;;
3865;SDS011;1948;53.250;10.412;2023-10-09T11:18:14;1.70;;;1.70;;
3865;SDS011;1948;53.250;10.412;2023-10-09T11:20:55;2.47;;;2.40;;
3865;SDS011;1948;53.250;10.412;2023-10-09T11:23:30;2.00;;;2.00;;
3865;SDS011;1948;53.250;10.412;2023-10-09T11:26:05;1.57;;;1.57;;
3865;SDS011;1948;53.250;10.412;2023-10-09T11:31:41;1.50;;;1.50;;
3865;SDS011;1948;53.250;10.412;2023-10-09T11:34:32;1.50;;;1.50;;
3865;SDS011;1948;53.250;10.412;2023-10-09T11:37:02;1.80;;;1.70;;
3865;SDS011;1948;53.250;10.412;2023-10-09T11:39:38;1.30;;;1.30;;
3865;SDS011;1948;53.250;10.412;2023-10-09T11:42:21;1.20;;;1.20;;
3865;SDS011;1948;53.250;10.412;2023-10-09T11:45:08;1.30;;;1.30;;
3865;SDS011;1948;53.250;10.412;2023-10-09T11:47:53;1.37;;;1.37;;
3865;SDS011;1948;53.250;10.412;2023-10-09T11:50:38;1.33;;;1.33;;
3865;SDS011;1948;53.250;10.412;2023-10-09T11:53:43;3.70;;;1.97;;
3865;SDS011;1948;53.250;10.412;2023-10-09T11:56:23;1.30;;;1.30;;
3865;SDS011;1948;53.250;10.412;2023-10-09T11:58:54;1.37;;;1.37;;
3865;SDS011;1948;53.250;10.412;2023-10-09T12:01:25;1.37;;;1.37;;
3865;SDS011;1948;53.250;10.412;2023-10-09T12:04:01;2.70;;;2.10;;
3865;SDS011;1948;53.250;10.412;2023-10-09T12:06:35;1.47;;;1.47;;
3865;SDS011;1948;53.250;10.412;2023-10-09T12:09:05;1.10;;;1.10;;
3865;SDS011;1948;53.250;10.412;2023-10-09T12:11:42;1.20;;;1.20;;
3865;SDS011;1948;53.250;10.412;2023-10-09T12:14:30;1.57;;;1.23;;
3865;SDS011;1948;53.250;10.412;2023-10-09T12:17:00;3.90;;;1.70;;
3865;SDS011;1948;53.250;10.412;2023-10-09T12:19:34;1.70;;;1.70;;
3865;SDS011;1948;53.250;10.412;2023-10-09T12:22:03;1.50;;;1.50;;
3865;SDS011;1948;53.250;10.412;2023-10-09T12:24:37;1.10;;;1.10;;
3865;SDS011;1948;53.250;10.412;2023-10-09T12:27:04;1.30;;;1.30;;
3865;SDS011;1948;53.250;10.412;2023-10-09T12:29:37;1.23;;;1.23;;
3865;SDS011;1948;53.250;10.412;2023-10-09T12:32:15;1.13;;;1.13;;
3865;SDS011;1948;53.250;10.412;2023-10-09T12:34:46;1.70;;;1.60;;
3865;SDS011;1948;53.250;10.412;2023-10-09T12:37:17;1.73;;;1.73;;
3865;SDS011;1948;53.250;10.412;2023-10-09T12:39:47;1.70;;;1.60;;
3865;SDS011;1948;53.250;10.412;2023-10-09T12:42:15;1.10;;;1.10;;
3865;SDS011;1948;53.250;10.412;2023-10-09T12:44:43;1.20;;;1.10;;
3865;SDS011;1948;53.250;10.412;2023-10-09T12:47:10;1.40;;;1.40;;
3865;SDS011;1948;53.250;10.412;2023-10-09T12:49:38;1.90;;;1.90;;
3865;SDS011;1948;53.250;10.412;2023-10-09T12:52:08;1.90;;;1.80;;
3865;SDS011;1948;53.250;10.412;2023-10-09T12:54:56;2.93;;;2.93;;
3865;SDS011;1948;53.250;10.412;2023-10-09T12:57:23;1.30;;;1.30;;
3865;SDS011;1948;53.250;10.412;2023-10-09T12:59:52;1.73;;;1.73;;
3865;SDS011;1948;53.250;10.412;2023-10-09T13:02:22;2.93;;;2.63;;
3865;SDS011;1948;53.250;10.412;2023-10-09T13:04:55;2.60;;;2.60;;
3865;SDS011;1948;53.250;10.412;2023-10-09T13:07:27;1.70;;;1.70;;
3865;SDS011;1948;53.250;10.412;2023-10-09T13:09:56;1.47;;;1.47;;
3865;SDS011;1948;53.250;10.412;2023-10-09T13:12:35;1.40;;;1.40;;
3865;SDS011;1948;53.250;10.412;2023-10-09T13:15:11;1.27;;;1.27;;
3865;SDS011;1948;53.250;10.412;2023-10-09T13:17:40;1.40;;;1.40;;
3865;SDS011;1948;53.250;10.412;2023-10-09T13:20:09;2.10;;;1.47;;
3865;SDS011;1948;53.250;10.412;2023-10-09T13:22:39;2.13;;;2.03;;
3865;SDS011;1948;53.250;10.412;2023-10-09T13:25:10;1.47;;;1.37;;
3865;SDS011;1948;53.250;10.412;2023-10-09T13:28:01;1.80;;;1.70;;
3865;SDS011;1948;53.250;10.412;2023-10-09T13:30:31;1.77;;;1.77;;
3865;SDS011;1948;53.250;10.412;2023-10-09T13:33:06;1.70;;;1.70;;
3865;SDS011;1948;53.250;10.412;2023-10-09T13:35:34;1.83;;;1.83;;
3865;SDS011;1948;53.250;10.412;2023-10-09T13:38:14;1.67;;;1.67;;
3865;SDS011;1948;53.250;10.412;2023-10-09T13:40:41;1.80;;;1.77;;
3865;SDS011;1948;53.250;10.412;2023-10-09T13:43:08;1.60;;;1.60;;
3865;SDS011;1948;53.250;10.412;2023-10-09T13:45:43;2.00;;;2.00;;
3865;SDS011;1948;53.250;10.412;2023-10-09T13:48:16;2.20;;;1.80;;
3865;SDS011;1948;53.250;10.412;2023-10-09T13:50:44;2.23;;;2.23;;
3865;SDS011;1948;53.250;10.412;2023-10-09T13:53:11;2.43;;;2.43;;
3865;SDS011;1948;53.250;10.412;2023-10-09T13:55:40;4.07;;;2.27;;
3865;SDS011;1948;53.250;10.412;2023-10-09T13:58:12;3.27;;;2.73;;
3865;SDS011;1948;53.250;10.412;2023-10-09T14:00:47;2.23;;;2.23;;
3865;SDS011;1948;53.250;10.412;2023-10-09T14:03:16;1.73;;;1.73;;
3865;SDS011;1948;53.250;10.412;2023-10-09T14:05:46;1.60;;;1.60;;
3865;SDS011;1948;53.250;10.412;2023-10-09T14:08:21;1.80;;;1.70;;
3865;SDS011;1948;53.250;10.412;2023-10-09T14:10:49;1.77;;;1.77;;
3865;SDS011;1948;53.250;10.412;2023-10-09T14:13:16;11.40;;;4.50;;
3865;SDS011;1948;53.250;10.412;2023-10-09T14:15:52;7.97;;;5.57;;
3865;SDS011;1948;53.250;10.412;2023-10-09T14:18:24;2.80;;;2.70;;
3865;SDS011;1948;53.250;10.412;2023-10-09T14:20:56;4.40;;;3.57;;
3865;SDS011;1948;53.250;10.412;2023-10-09T14:23:31;3.43;;;3.23;;
3865;SDS011;1948;53.250;10.412;2023-10-09T14:26:03;2.57;;;2.50;;
3865;SDS011;1948;53.250;10.412;2023-10-09T14:28:32;2.53;;;2.53;;
3865;SDS011;1948;53.250;10.412;2023-10-09T14:30:59;2.90;;;2.90;;
3865;SDS011;1948;53.250;10.412;2023-10-09T14:33:30;2.40;;;2.30;;
3865;SDS011;1948;53.250;10.412;2023-10-09T14:36:03;4.93;;;4.67;;
3865;SDS011;1948;53.250;10.412;2023-10-09T14:38:35;4.30;;;4.20;;
3865;SDS011;1948;53.250;10.412;2023-10-09T14:41:05;4.40;;;4.20;;
3865;SDS011;1948;53.250;10.412;2023-10-09T14:43:38;4.30;;;4.10;;
3865;SDS011;1948;53.250;10.412;2023-10-09T14:46:12;3.97;;;3.80;;
3865;SDS011;1948;53.250;10.412;2023-10-09T14:48:40;3.17;;;2.97;;
3865;SDS011;1948;53.250;10.412;2023-10-09T14:51:12;4.60;;;4.47;;
3865;SDS011;1948;53.250;10.412;2023-10-09T14:53:39;9.90;;;8.90;;
3865;SDS011;1948;53.250;10.412;2023-10-09T14:56:06;8.53;;;7.73;;
3865;SDS011;1948;53.250;10.412;2023-10-09T14:58:36;8.13;;;6.17;;
3865;SDS011;1948;53.250;10.412;2023-10-09T15:01:09;5.70;;;5.40;;
3865;SDS011;1948;53.250;10.412;2023-10-09T15:03:41;3.47;;;3.37;;
3865;SDS011;1948;53.250;10.412;2023-10-09T15:06:09;3.27;;;3.17;;
3865;SDS011;1948;53.250;10.412;2023-10-09T15:08:37;8.63;;;4.10;;
3865;SDS011;1948;53.250;10.412;2023-10-09T15:11:04;4.23;;;4.07;;
3865;SDS011;1948;53.250;10.412;2023-10-09T15:13:36;4.77;;;4.50;;
3865;SDS011;1948;53.250;10.412;2023-10-09T15:16:06;3.83;;;3.70;;
3865;SDS011;1948;53.250;10.412;2023-10-09T15:18:37;5.40;;;5.00;;
3865;SDS011;1948;53.250;10.412;2023-10-09T15:21:04;4.30;;;4.10;;
3865;SDS011;1948;53.250;10.412;2023-10-09T15:23:32;5.90;;;5.00;;
3865;SDS011;1948;53.250;10.412;2023-10-09T15:26:02;5.13;;;4.93;;
3865;SDS011;1948;53.250;10.412;2023-10-09T15:28:33;6.37;;;5.83;;
3865;SDS011;1948;53.250;10.412;2023-10-09T15:31:00;9.20;;;7.60;;
3865;SDS011;1948;53.250;10.412;2023-10-09T15:33:27;9.97;;;9.07;;
3865;SDS011;1948;53.250;10.412;2023-10-09T15:36:08;8.63;;;3.40;;
3865;SDS011;1948;53.250;10.412;2023-10-09T15:38:40;4.93;;;4.73;;
3865;SDS011;1948;53.250;10.412;2023-10-09T15:41:07;12.70;;;4.20;;
3865;SDS011;1948;53.250;10.412;2023-10-09T15:43:39;7.33;;;3.60;;
3865;SDS011;1948;53.250;10.412;2023-10-09T15:46:13;3.90;;;3.80;;
3865;SDS011;1948;53.250;10.412;2023-10-09T15:48:43;9.20;;;3.87;;
3865;SDS011;1948;53.250;10.412;2023-10-09T15:51:12;6.67;;;5.77;;
3865;SDS011;1948;53.250;10.412;2023-10-09T15:53:43;4.83;;;4.53;;
3865;SDS011;1948;53.250;10.412;2023-10-09T15:56:11;5.33;;;5.10;;
3865;SDS011;1948;53.250;10.412;2023-10-09T15:58:44;4.83;;;4.53;;
3865;SDS011;1948;53.250;10.412;2023-10-09T16:01:14;6.03;;;5.63;;
3865;SDS011;1948;53.250;10.412;2023-10-09T16:03:45;4.77;;;4.43;;
3865;SDS011;1948;53.250;10.412;2023-10-09T16:06:14;4.63;;;4.53;;
3865;SDS011;1948;53.250;10.412;2023-10-09T16:08:43;6.53;;;3.80;;
3865;SDS011;1948;53.250;10.412;2023-10-09T16:11:16;4.40;;;4.30;;
3865;SDS011;1948;53.250;10.412;2023-10-09T16:13:45;4.97;;;4.67;;
3865;SDS011;1948;53.250;10.412;2023-10-09T16:16:12;4.27;;;4.17;;
3865;SDS011;1948;53.250;10.412;2023-10-09T16:18:39;5.10;;;4.90;;
3865;SDS011;1948;53.250;10.412;2023-10-09T16:21:09;4.67;;;4.47;;
3865;SDS011;1948;53.250;10.412;2023-10-09T16:23:38;7.00;;;5.07;;